La Palma Islan, Spain
Current Conditions -  °F | °C
As of 9:00 PM on Saturday 25 Oct 2014 (Local Time) from GCLA Reporting Station
Clear Clear  
Wind Chill: 75°   Ceiling: Unl
Heat Index: 75°   Visibility: 6mi
Dew Point: 66°   Wind: 2mph
Humidity: 73%   Direction: NA
Pressure: 30"   Gusts: NA
Location:  28.62°N, 17.75°W
Report Text: GCLA 252000Z VRB02KT CAVOK 24/19 Q1016
Loading
Personal Weather Stations






























Interactive Weather Map
Tropical Storm Tracking
New forecast layout! Learn more

10-Day Weather Forecast

Advertisements
Track Severe Weather on mobile